sensor_id;sensor_type;location;lat;lon;timestamp;P1;durP1;ratioP1;P2;durP2;ratioP2
68577;SDS011;61668;45.388;11.784;2023-04-25T00:01:32;8.60;;;2.90;;
68577;SDS011;61668;45.388;11.784;2023-04-25T00:04:00;10.50;;;3.10;;
68577;SDS011;61668;45.388;11.784;2023-04-25T00:06:26;8.30;;;3.00;;
68577;SDS011;61668;45.388;11.784;2023-04-25T00:08:52;9.80;;;3.00;;
68577;SDS011;61668;45.388;11.784;2023-04-25T00:11:18;9.00;;;2.80;;
68577;SDS011;61668;45.388;11.784;2023-04-25T00:13:44;9.50;;;2.80;;
68577;SDS011;61668;45.388;11.784;2023-04-25T00:16:11;7.60;;;2.60;;
68577;SDS011;61668;45.388;11.784;2023-04-25T00:18:39;8.60;;;2.90;;
68577;SDS011;61668;45.388;11.784;2023-04-25T00:21:05;10.20;;;3.20;;
68577;SDS011;61668;45.388;11.784;2023-04-25T00:23:31;10.80;;;3.80;;
68577;SDS011;61668;45.388;11.784;2023-04-25T00:25:57;11.60;;;4.20;;
68577;SDS011;61668;45.388;11.784;2023-04-25T00:28:23;10.70;;;4.50;;
68577;SDS011;61668;45.388;11.784;2023-04-25T00:30:49;10.70;;;3.70;;
68577;SDS011;61668;45.388;11.784;2023-04-25T00:33:15;8.40;;;3.00;;
68577;SDS011;61668;45.388;11.784;2023-04-25T00:35:41;10.10;;;3.30;;
68577;SDS011;61668;45.388;11.784;2023-04-25T00:38:07;10.10;;;4.20;;
68577;SDS011;61668;45.388;11.784;2023-04-25T00:40:33;12.40;;;5.00;;
68577;SDS011;61668;45.388;11.784;2023-04-25T00:42:59;11.30;;;5.10;;
68577;SDS011;61668;45.388;11.784;2023-04-25T00:45:28;11.20;;;4.60;;
68577;SDS011;61668;45.388;11.784;2023-04-25T00:47:55;10.60;;;4.20;;
68577;SDS011;61668;45.388;11.784;2023-04-25T00:50:22;12.00;;;4.00;;
68577;SDS011;61668;45.388;11.784;2023-04-25T00:52:49;10.90;;;4.70;;
68577;SDS011;61668;45.388;11.784;2023-04-25T00:55:14;11.90;;;4.10;;
68577;SDS011;61668;45.388;11.784;2023-04-25T00:57:41;11.60;;;4.50;;
68577;SDS011;61668;45.388;11.784;2023-04-25T01:00:09;14.10;;;4.70;;
68577;SDS011;61668;45.388;11.784;2023-04-25T01:02:36;9.60;;;4.20;;
68577;SDS011;61668;45.388;11.784;2023-04-25T01:05:03;10.00;;;3.70;;
68577;SDS011;61668;45.388;11.784;2023-04-25T01:07:29;11.00;;;4.60;;
68577;SDS011;61668;45.388;11.784;2023-04-25T01:09:55;11.70;;;4.80;;
68577;SDS011;61668;45.388;11.784;2023-04-25T01:12:23;8.70;;;3.70;;
68577;SDS011;61668;45.388;11.784;2023-04-25T01:14:49;10.30;;;4.70;;
68577;SDS011;61668;45.388;11.784;2023-04-25T01:17:15;11.70;;;4.50;;
68577;SDS011;61668;45.388;11.784;2023-04-25T01:19:41;10.20;;;4.50;;
68577;SDS011;61668;45.388;11.784;2023-04-25T01:22:07;11.00;;;4.40;;
68577;SDS011;61668;45.388;11.784;2023-04-25T01:24:35;10.80;;;4.50;;
68577;SDS011;61668;45.388;11.784;2023-04-25T01:27:02;11.40;;;4.50;;
68577;SDS011;61668;45.388;11.784;2023-04-25T01:29:28;10.00;;;4.50;;
68577;SDS011;61668;45.388;11.784;2023-04-25T01:31:54;8.80;;;3.40;;
68577;SDS011;61668;45.388;11.784;2023-04-25T01:34:20;9.30;;;3.50;;
68577;SDS011;61668;45.388;11.784;2023-04-25T01:36:50;10.30;;;4.00;;
68577;SDS011;61668;45.388;11.784;2023-04-25T01:39:20;9.50;;;4.10;;
68577;SDS011;61668;45.388;11.784;2023-04-25T01:41:47;8.90;;;3.40;;
68577;SDS011;61668;45.388;11.784;2023-04-25T01:44:13;11.00;;;4.90;;
68577;SDS011;61668;45.388;11.784;2023-04-25T01:46:40;9.80;;;4.00;;
68577;SDS011;61668;45.388;11.784;2023-04-25T01:49:06;10.10;;;4.10;;
68577;SDS011;61668;45.388;11.784;2023-04-25T01:51:31;10.70;;;5.00;;
68577;SDS011;61668;45.388;11.784;2023-04-25T01:53:58;10.80;;;4.20;;
68577;SDS011;61668;45.388;11.784;2023-04-25T01:56:24;10.80;;;4.10;;
68577;SDS011;61668;45.388;11.784;2023-04-25T01:58:52;10.40;;;4.40;;
68577;SDS011;61668;45.388;11.784;2023-04-25T02:01:17;10.60;;;4.30;;
68577;SDS011;61668;45.388;11.784;2023-04-25T02:03:43;10.60;;;4.80;;
68577;SDS011;61668;45.388;11.784;2023-04-25T02:06:09;9.60;;;4.10;;
68577;SDS011;61668;45.388;11.784;2023-04-25T02:08:35;11.40;;;4.80;;
68577;SDS011;61668;45.388;11.784;2023-04-25T02:11:02;10.50;;;4.80;;
68577;SDS011;61668;45.388;11.784;2023-04-25T02:13:28;12.40;;;4.70;;
68577;SDS011;61668;45.388;11.784;2023-04-25T02:15:54;10.80;;;5.00;;
68577;SDS011;61668;45.388;11.784;2023-04-25T02:18:19;10.50;;;4.20;;
68577;SDS011;61668;45.388;11.784;2023-04-25T02:20:46;10.30;;;4.30;;
68577;SDS011;61668;45.388;11.784;2023-04-25T02:23:12;8.70;;;3.60;;
68577;SDS011;61668;45.388;11.784;2023-04-25T02:25:38;8.60;;;3.30;;
68577;SDS011;61668;45.388;11.784;2023-04-25T02:28:04;8.40;;;3.00;;
68577;SDS011;61668;45.388;11.784;2023-04-25T02:30:30;9.00;;;2.90;;
68577;SDS011;61668;45.388;11.784;2023-04-25T02:32:55;9.70;;;3.30;;
68577;SDS011;61668;45.388;11.784;2023-04-25T02:35:21;9.50;;;3.60;;
68577;SDS011;61668;45.388;11.784;2023-04-25T02:37:47;10.30;;;3.40;;
68577;SDS011;61668;45.388;11.784;2023-04-25T02:40:13;10.90;;;3.70;;
68577;SDS011;61668;45.388;11.784;2023-04-25T02:42:38;11.00;;;4.40;;
68577;SDS011;61668;45.388;11.784;2023-04-25T02:45:05;9.80;;;3.90;;
68577;SDS011;61668;45.388;11.784;2023-04-25T02:47:31;12.50;;;4.80;;
68577;SDS011;61668;45.388;11.784;2023-04-25T02:49:57;10.90;;;4.80;;
68577;SDS011;61668;45.388;11.784;2023-04-25T02:52:22;12.50;;;4.40;;
68577;SDS011;61668;45.388;11.784;2023-04-25T02:54:48;12.40;;;4.70;;
68577;SDS011;61668;45.388;11.784;2023-04-25T02:57:14;11.90;;;4.40;;
68577;SDS011;61668;45.388;11.784;2023-04-25T02:59:40;10.60;;;4.40;;
68577;SDS011;61668;45.388;11.784;2023-04-25T03:02:05;9.80;;;3.80;;
68577;SDS011;61668;45.388;11.784;2023-04-25T03:04:31;10.80;;;3.20;;
68577;SDS011;61668;45.388;11.784;2023-04-25T03:06:58;9.50;;;3.70;;
68577;SDS011;61668;45.388;11.784;2023-04-25T03:09:24;10.80;;;3.70;;
68577;SDS011;61668;45.388;11.784;2023-04-25T03:11:50;10.10;;;3.40;;
68577;SDS011;61668;45.388;11.784;2023-04-25T03:14:16;12.10;;;4.20;;
68577;SDS011;61668;45.388;11.784;2023-04-25T03:16:41;10.50;;;3.80;;
68577;SDS011;61668;45.388;11.784;2023-04-25T03:19:07;9.50;;;3.30;;
68577;SDS011;61668;45.388;11.784;2023-04-25T03:21:34;9.20;;;2.40;;
68577;SDS011;61668;45.388;11.784;2023-04-25T03:24:02;8.90;;;2.40;;
68577;SDS011;61668;45.388;11.784;2023-04-25T03:26:29;8.70;;;2.20;;
68577;SDS011;61668;45.388;11.784;2023-04-25T03:28:55;8.10;;;2.20;;
68577;SDS011;61668;45.388;11.784;2023-04-25T03:31:20;9.30;;;1.80;;
68577;SDS011;61668;45.388;11.784;2023-04-25T03:33:47;8.20;;;1.50;;
68577;SDS011;61668;45.388;11.784;2023-04-25T03:36:13;7.70;;;2.10;;
68577;SDS011;61668;45.388;11.784;2023-04-25T03:38:39;6.40;;;1.10;;
68577;SDS011;61668;45.388;11.784;2023-04-25T03:41:06;8.30;;;1.40;;
68577;SDS011;61668;45.388;11.784;2023-04-25T03:43:32;7.00;;;1.70;;
68577;SDS011;61668;45.388;11.784;2023-04-25T03:45:58;7.60;;;1.50;;
68577;SDS011;61668;45.388;11.784;2023-04-25T03:48:24;7.20;;;1.30;;
68577;SDS011;61668;45.388;11.784;2023-04-25T03:50:51;7.40;;;1.50;;
68577;SDS011;61668;45.388;11.784;2023-04-25T03:53:18;7.00;;;1.50;;
68577;SDS011;61668;45.388;11.784;2023-04-25T03:55:43;7.90;;;1.90;;
68577;SDS011;61668;45.388;11.784;2023-04-25T03:58:09;8.20;;;1.70;;
68577;SDS011;61668;45.388;11.784;2023-04-25T04:00:35;7.50;;;1.50;;
68577;SDS011;61668;45.388;11.784;2023-04-25T04:03:01;8.10;;;1.70;;
68577;SDS011;61668;45.388;11.784;2023-04-25T04:05:27;7.30;;;1.50;;
68577;SDS011;61668;45.388;11.784;2023-04-25T04:07:54;8.20;;;2.00;;
68577;SDS011;61668;45.388;11.784;2023-04-25T04:10:20;8.00;;;2.00;;
68577;SDS011;61668;45.388;11.784;2023-04-25T04:12:46;8.40;;;1.40;;
68577;SDS011;61668;45.388;11.784;2023-04-25T04:15:12;7.60;;;1.70;;
68577;SDS011;61668;45.388;11.784;2023-04-25T04:17:38;8.50;;;1.70;;
68577;SDS011;61668;45.388;11.784;2023-04-25T04:20:04;7.70;;;2.10;;
68577;SDS011;61668;45.388;11.784;2023-04-25T04:22:32;7.00;;;1.60;;
68577;SDS011;61668;45.388;11.784;2023-04-25T04:24:57;8.60;;;1.40;;
68577;SDS011;61668;45.388;11.784;2023-04-25T04:27:23;8.80;;;2.00;;
68577;SDS011;61668;45.388;11.784;2023-04-25T04:29:49;9.20;;;2.20;;
68577;SDS011;61668;45.388;11.784;2023-04-25T04:32:17;8.50;;;2.40;;
68577;SDS011;61668;45.388;11.784;2023-04-25T04:34:43;10.90;;;4.00;;
68577;SDS011;61668;45.388;11.784;2023-04-25T04:37:10;10.80;;;4.00;;
68577;SDS011;61668;45.388;11.784;2023-04-25T04:39:38;9.60;;;3.50;;
68577;SDS011;61668;45.388;11.784;2023-04-25T04:42:04;9.30;;;3.50;;
68577;SDS011;61668;45.388;11.784;2023-04-25T04:44:30;8.60;;;3.30;;
68577;SDS011;61668;45.388;11.784;2023-04-25T04:47:01;10.60;;;3.10;;
68577;SDS011;61668;45.388;11.784;2023-04-25T04:49:27;10.00;;;2.60;;
68577;SDS011;61668;45.388;11.784;2023-04-25T04:51:52;9.90;;;2.20;;
68577;SDS011;61668;45.388;11.784;2023-04-25T04:54:20;8.00;;;1.90;;
68577;SDS011;61668;45.388;11.784;2023-04-25T04:56:45;9.50;;;2.70;;
68577;SDS011;61668;45.388;11.784;2023-04-25T04:59:11;8.30;;;2.10;;
68577;SDS011;61668;45.388;11.784;2023-04-25T05:01:37;7.70;;;2.40;;
68577;SDS011;61668;45.388;11.784;2023-04-25T05:04:03;10.10;;;2.50;;
68577;SDS011;61668;45.388;11.784;2023-04-25T05:06:29;9.40;;;2.30;;
68577;SDS011;61668;45.388;11.784;2023-04-25T05:08:57;9.50;;;2.50;;
68577;SDS011;61668;45.388;11.784;2023-04-25T05:11:23;8.00;;;2.70;;
68577;SDS011;61668;45.388;11.784;2023-04-25T05:13:52;8.00;;;2.40;;
68577;SDS011;61668;45.388;11.784;2023-04-25T05:16:19;8.10;;;2.10;;
68577;SDS011;61668;45.388;11.784;2023-04-25T05:18:46;9.10;;;2.20;;
68577;SDS011;61668;45.388;11.784;2023-04-25T05:21:12;7.70;;;2.20;;
68577;SDS011;61668;45.388;11.784;2023-04-25T05:23:38;7.90;;;2.10;;
68577;SDS011;61668;45.388;11.784;2023-04-25T05:26:04;7.40;;;1.90;;
68577;SDS011;61668;45.388;11.784;2023-04-25T05:28:30;8.70;;;1.90;;
68577;SDS011;61668;45.388;11.784;2023-04-25T05:30:56;8.90;;;2.30;;
68577;SDS011;61668;45.388;11.784;2023-04-25T05:33:22;8.40;;;2.00;;
68577;SDS011;61668;45.388;11.784;2023-04-25T05:35:49;7.00;;;1.40;;
68577;SDS011;61668;45.388;11.784;2023-04-25T05:38:15;7.20;;;1.80;;
68577;SDS011;61668;45.388;11.784;2023-04-25T05:40:41;8.40;;;2.30;;
68577;SDS011;61668;45.388;11.784;2023-04-25T05:43:07;7.30;;;1.60;;
68577;SDS011;61668;45.388;11.784;2023-04-25T05:45:33;8.30;;;1.70;;
68577;SDS011;61668;45.388;11.784;2023-04-25T05:47:59;6.20;;;1.20;;
68577;SDS011;61668;45.388;11.784;2023-04-25T05:50:24;8.00;;;0.80;;
68577;SDS011;61668;45.388;11.784;2023-04-25T05:52:51;8.50;;;1.00;;
68577;SDS011;61668;45.388;11.784;2023-04-25T05:55:16;7.10;;;1.00;;
68577;SDS011;61668;45.388;11.784;2023-04-25T05:57:42;5.70;;;0.80;;
68577;SDS011;61668;45.388;11.784;2023-04-25T06:00:12;9.20;;;0.90;;
68577;SDS011;61668;45.388;11.784;2023-04-25T06:02:40;5.90;;;0.70;;
68577;SDS011;61668;45.388;11.784;2023-04-25T06:05:06;6.00;;;0.70;;
68577;SDS011;61668;45.388;11.784;2023-04-25T06:07:33;5.40;;;0.50;;
68577;SDS011;61668;45.388;11.784;2023-04-25T06:10:00;6.40;;;1.10;;
68577;SDS011;61668;45.388;11.784;2023-04-25T06:12:26;4.60;;;0.40;;
68577;SDS011;61668;45.388;11.784;2023-04-25T06:14:52;5.70;;;0.40;;
68577;SDS011;61668;45.388;11.784;2023-04-25T06:17:18;5.50;;;0.50;;
68577;SDS011;61668;45.388;11.784;2023-04-25T06:19:43;6.30;;;0.30;;
68577;SDS011;61668;45.388;11.784;2023-04-25T06:22:09;4.40;;;0.40;;
68577;SDS011;61668;45.388;11.784;2023-04-25T06:24:35;5.30;;;0.40;;
68577;SDS011;61668;45.388;11.784;2023-04-25T06:27:01;4.80;;;0.40;;
68577;SDS011;61668;45.388;11.784;2023-04-25T06:29:27;4.70;;;0.30;;
68577;SDS011;61668;45.388;11.784;2023-04-25T06:31:52;3.50;;;0.30;;
68577;SDS011;61668;45.388;11.784;2023-04-25T06:34:18;3.70;;;0.30;;
68577;SDS011;61668;45.388;11.784;2023-04-25T06:36:44;3.50;;;0.20;;
68577;SDS011;61668;45.388;11.784;2023-04-25T06:39:10;4.40;;;0.30;;
68577;SDS011;61668;45.388;11.784;2023-04-25T06:41:36;4.10;;;0.30;;
68577;SDS011;61668;45.388;11.784;2023-04-25T06:44:02;2.90;;;0.20;;
68577;SDS011;61668;45.388;11.784;2023-04-25T06:46:28;4.90;;;0.30;;
68577;SDS011;61668;45.388;11.784;2023-04-25T06:48:53;4.50;;;0.40;;
68577;SDS011;61668;45.388;11.784;2023-04-25T06:51:19;4.80;;;0.30;;
68577;SDS011;61668;45.388;11.784;2023-04-25T06:53:45;4.40;;;0.40;;
68577;SDS011;61668;45.388;11.784;2023-04-25T06:56:10;3.60;;;0.20;;
68577;SDS011;61668;45.388;11.784;2023-04-25T06:58:36;3.40;;;0.30;;
68577;SDS011;61668;45.388;11.784;2023-04-25T07:01:02;3.30;;;0.20;;
68577;SDS011;61668;45.388;11.784;2023-04-25T07:03:28;3.80;;;0.30;;
68577;SDS011;61668;45.388;11.784;2023-04-25T07:05:54;4.70;;;0.30;;
68577;SDS011;61668;45.388;11.784;2023-04-25T07:08:20;4.70;;;0.50;;
68577;SDS011;61668;45.388;11.784;2023-04-25T07:10:46;4.60;;;0.20;;
68577;SDS011;61668;45.388;11.784;2023-04-25T07:13:12;5.90;;;0.30;;
68577;SDS011;61668;45.388;11.784;2023-04-25T07:15:38;3.60;;;0.20;;
68577;SDS011;61668;45.388;11.784;2023-04-25T07:18:03;3.30;;;0.20;;
68577;SDS011;61668;45.388;11.784;2023-04-25T07:20:30;3.40;;;0.20;;
68577;SDS011;61668;45.388;11.784;2023-04-25T07:22:56;3.60;;;0.20;;
68577;SDS011;61668;45.388;11.784;2023-04-25T07:25:22;4.00;;;0.30;;
68577;SDS011;61668;45.388;11.784;2023-04-25T07:27:48;6.50;;;0.50;;
68577;SDS011;61668;45.388;11.784;2023-04-25T07:30:14;4.00;;;0.40;;
68577;SDS011;61668;45.388;11.784;2023-04-25T07:32:40;4.20;;;0.30;;
68577;SDS011;61668;45.388;11.784;2023-04-25T07:35:06;4.10;;;0.30;;
68577;SDS011;61668;45.388;11.784;2023-04-25T07:37:36;5.20;;;0.80;;
68577;SDS011;61668;45.388;11.784;2023-04-25T07:40:03;5.70;;;0.30;;
68577;SDS011;61668;45.388;11.784;2023-04-25T07:42:29;5.00;;;0.50;;
68577;SDS011;61668;45.388;11.784;2023-04-25T07:44:55;4.90;;;0.40;;
68577;SDS011;61668;45.388;11.784;2023-04-25T07:47:21;4.80;;;0.60;;
68577;SDS011;61668;45.388;11.784;2023-04-25T07:49:47;5.90;;;0.60;;
68577;SDS011;61668;45.388;11.784;2023-04-25T07:52:13;6.80;;;0.80;;
68577;SDS011;61668;45.388;11.784;2023-04-25T07:54:39;8.50;;;0.60;;
68577;SDS011;61668;45.388;11.784;2023-04-25T07:57:05;6.50;;;0.70;;
68577;SDS011;61668;45.388;11.784;2023-04-25T07:59:34;4.90;;;0.50;;
68577;SDS011;61668;45.388;11.784;2023-04-25T08:02:00;6.10;;;0.60;;
68577;SDS011;61668;45.388;11.784;2023-04-25T08:04:27;6.50;;;0.80;;
68577;SDS011;61668;45.388;11.784;2023-04-25T08:06:53;6.10;;;0.60;;
68577;SDS011;61668;45.388;11.784;2023-04-25T08:09:20;6.50;;;0.60;;
68577;SDS011;61668;45.388;11.784;2023-04-25T08:11:46;7.20;;;1.30;;
68577;SDS011;61668;45.388;11.784;2023-04-25T08:14:12;6.10;;;1.10;;
68577;SDS011;61668;45.388;11.784;2023-04-25T08:16:39;7.60;;;1.60;;
68577;SDS011;61668;45.388;11.784;2023-04-25T08:19:05;10.00;;;1.80;;
68577;SDS011;61668;45.388;11.784;2023-04-25T08:21:31;9.00;;;2.60;;
68577;SDS011;61668;45.388;11.784;2023-04-25T08:23:58;8.60;;;2.10;;
68577;SDS011;61668;45.388;11.784;2023-04-25T08:26:28;7.60;;;1.80;;
68577;SDS011;61668;45.388;11.784;2023-04-25T08:28:54;8.70;;;1.80;;
68577;SDS011;61668;45.388;11.784;2023-04-25T08:31:19;9.10;;;2.30;;
68577;SDS011;61668;45.388;11.784;2023-04-25T08:33:45;8.70;;;2.60;;
68577;SDS011;61668;45.388;11.784;2023-04-25T08:36:11;8.90;;;2.10;;
68577;SDS011;61668;45.388;11.784;2023-04-25T08:38:37;7.40;;;1.50;;
68577;SDS011;61668;45.388;11.784;2023-04-25T08:41:04;6.70;;;1.10;;
68577;SDS011;61668;45.388;11.784;2023-04-25T08:43:30;7.00;;;0.90;;
68577;SDS011;61668;45.388;11.784;2023-04-25T08:46:00;7.20;;;1.10;;
68577;SDS011;61668;45.388;11.784;2023-04-25T08:48:32;8.00;;;1.30;;
68577;SDS011;61668;45.388;11.784;2023-04-25T08:51:01;8.60;;;1.80;;
68577;SDS011;61668;45.388;11.784;2023-04-25T08:53:30;8.00;;;0.90;;
68577;SDS011;61668;45.388;11.784;2023-04-25T08:55:58;7.40;;;1.60;;
68577;SDS011;61668;45.388;11.784;2023-04-25T08:58:27;7.30;;;1.20;;
68577;SDS011;61668;45.388;11.784;2023-04-25T09:00:54;9.00;;;2.50;;
68577;SDS011;61668;45.388;11.784;2023-04-25T09:03:20;6.70;;;1.20;;
68577;SDS011;61668;45.388;11.784;2023-04-25T09:05:46;7.30;;;1.30;;
68577;SDS011;61668;45.388;11.784;2023-04-25T09:08:11;8.10;;;1.10;;
68577;SDS011;61668;45.388;11.784;2023-04-25T09:10:37;8.00;;;1.10;;
68577;SDS011;61668;45.388;11.784;2023-04-25T09:15:31;7.10;;;1.20;;
68577;SDS011;61668;45.388;11.784;2023-04-25T09:17:58;6.30;;;0.90;;
68577;SDS011;61668;45.388;11.784;2023-04-25T09:20:25;7.30;;;1.50;;
68577;SDS011;61668;45.388;11.784;2023-04-25T09:23:04;7.30;;;1.50;;
68577;SDS011;61668;45.388;11.784;2023-04-25T09:25:36;8.00;;;1.40;;
68577;SDS011;61668;45.388;11.784;2023-04-25T09:28:05;6.70;;;1.20;;
68577;SDS011;61668;45.388;11.784;2023-04-25T09:30:34;8.20;;;1.50;;
68577;SDS011;61668;45.388;11.784;2023-04-25T09:33:08;6.50;;;1.40;;
68577;SDS011;61668;45.388;11.784;2023-04-25T09:35:36;6.10;;;1.10;;
68577;SDS011;61668;45.388;11.784;2023-04-25T09:38:11;6.40;;;1.20;;
68577;SDS011;61668;45.388;11.784;2023-04-25T09:40:45;7.90;;;2.30;;
68577;SDS011;61668;45.388;11.784;2023-04-25T09:43:22;7.00;;;1.50;;
68577;SDS011;61668;45.388;11.784;2023-04-25T09:45:49;7.80;;;1.70;;
68577;SDS011;61668;45.388;11.784;2023-04-25T09:48:24;7.40;;;2.00;;
68577;SDS011;61668;45.388;11.784;2023-04-25T09:51:10;8.80;;;2.50;;
68577;SDS011;61668;45.388;11.784;2023-04-25T09:53:46;7.80;;;2.10;;
68577;SDS011;61668;45.388;11.784;2023-04-25T09:56:15;7.00;;;1.90;;
68577;SDS011;61668;45.388;11.784;2023-04-25T09:58:42;7.80;;;1.40;;
68577;SDS011;61668;45.388;11.784;2023-04-25T10:01:09;7.00;;;1.50;;
68577;SDS011;61668;45.388;11.784;2023-04-25T10:03:39;7.50;;;1.00;;
68577;SDS011;61668;45.388;11.784;2023-04-25T10:06:21;7.40;;;1.00;;
68577;SDS011;61668;45.388;11.784;2023-04-25T10:08:51;6.50;;;1.10;;
68577;SDS011;61668;45.388;11.784;2023-04-25T10:11:20;7.10;;;1.70;;
68577;SDS011;61668;45.388;11.784;2023-04-25T10:13:48;6.20;;;0.80;;
68577;SDS011;61668;45.388;11.784;2023-04-25T10:16:15;6.00;;;0.80;;
68577;SDS011;61668;45.388;11.784;2023-04-25T10:18:44;7.40;;;1.40;;
68577;SDS011;61668;45.388;11.784;2023-04-25T10:21:11;5.80;;;0.60;;
68577;SDS011;61668;45.388;11.784;2023-04-25T10:23:38;4.70;;;0.40;;
68577;SDS011;61668;45.388;11.784;2023-04-25T10:26:04;4.80;;;0.60;;
68577;SDS011;61668;45.388;11.784;2023-04-25T10:29:00;5.90;;;0.40;;
68577;SDS011;61668;45.388;11.784;2023-04-25T10:31:29;6.50;;;0.90;;
68577;SDS011;61668;45.388;11.784;2023-04-25T10:33:56;7.20;;;0.80;;
68577;SDS011;61668;45.388;11.784;2023-04-25T10:36:23;5.30;;;0.50;;
68577;SDS011;61668;45.388;11.784;2023-04-25T10:38:52;4.00;;;0.40;;
68577;SDS011;61668;45.388;11.784;2023-04-25T10:41:20;5.30;;;0.30;;
68577;SDS011;61668;45.388;11.784;2023-04-25T10:43:49;6.20;;;0.90;;
68577;SDS011;61668;45.388;11.784;2023-04-25T10:46:17;5.60;;;0.50;;
68577;SDS011;61668;45.388;11.784;2023-04-25T10:48:47;4.30;;;0.30;;
68577;SDS011;61668;45.388;11.784;2023-04-25T10:59:07;6.50;;;1.10;;
68577;SDS011;61668;45.388;11.784;2023-04-25T11:01:41;5.90;;;0.70;;
68577;SDS011;61668;45.388;11.784;2023-04-25T11:04:29;8.70;;;0.60;;
68577;SDS011;61668;45.388;11.784;2023-04-25T11:09:41;5.80;;;0.40;;
68577;SDS011;61668;45.388;11.784;2023-04-25T11:12:10;3.80;;;0.30;;
68577;SDS011;61668;45.388;11.784;2023-04-25T11:14:37;4.10;;;0.30;;
68577;SDS011;61668;45.388;11.784;2023-04-25T11:17:03;4.30;;;0.30;;
68577;SDS011;61668;45.388;11.784;2023-04-25T11:19:29;4.60;;;0.30;;
68577;SDS011;61668;45.388;11.784;2023-04-25T11:21:57;5.70;;;0.30;;
68577;SDS011;61668;45.388;11.784;2023-04-25T11:24:32;3.80;;;0.20;;
68577;SDS011;61668;45.388;11.784;2023-04-25T11:27:01;3.30;;;0.20;;
68577;SDS011;61668;45.388;11.784;2023-04-25T11:29:28;4.30;;;0.30;;
68577;SDS011;61668;45.388;11.784;2023-04-25T11:31:55;2.60;;;0.10;;
68577;SDS011;61668;45.388;11.784;2023-04-25T11:34:26;3.20;;;0.20;;
68577;SDS011;61668;45.388;11.784;2023-04-25T11:36:56;3.50;;;0.20;;
68577;SDS011;61668;45.388;11.784;2023-04-25T11:39:24;3.70;;;0.20;;
68577;SDS011;61668;45.388;11.784;2023-04-25T11:41:51;5.90;;;0.20;;
68577;SDS011;61668;45.388;11.784;2023-04-25T11:44:18;2.80;;;0.20;;
68577;SDS011;61668;45.388;11.784;2023-04-25T11:46:46;2.20;;;0.20;;
68577;SDS011;61668;45.388;11.784;2023-04-25T11:49:13;3.50;;;0.20;;
68577;SDS011;61668;45.388;11.784;2023-04-25T11:51:44;3.90;;;0.20;;
68577;SDS011;61668;45.388;11.784;2023-04-25T11:54:11;2.20;;;0.20;;
68577;SDS011;61668;45.388;11.784;2023-04-25T11:56:41;3.40;;;0.20;;
68577;SDS011;61668;45.388;11.784;2023-04-25T11:59:10;2.20;;;0.20;;
68577;SDS011;61668;45.388;11.784;2023-04-25T12:01:39;2.50;;;0.20;;
68577;SDS011;61668;45.388;11.784;2023-04-25T12:04:15;1.90;;;0.10;;
68577;SDS011;61668;45.388;11.784;2023-04-25T12:06:47;5.80;;;1.70;;
68577;SDS011;61668;45.388;11.784;2023-04-25T12:09:16;5.70;;;0.20;;
68577;SDS011;61668;45.388;11.784;2023-04-25T12:11:56;2.00;;;0.10;;
68577;SDS011;61668;45.388;11.784;2023-04-25T12:14:28;3.30;;;0.20;;
68577;SDS011;61668;45.388;11.784;2023-04-25T12:16:57;1.90;;;0.10;;
68577;SDS011;61668;45.388;11.784;2023-04-25T12:19:23;2.40;;;0.20;;
68577;SDS011;61668;45.388;11.784;2023-04-25T12:21:50;5.20;;;0.30;;
68577;SDS011;61668;45.388;11.784;2023-04-25T12:24:18;3.20;;;0.20;;
68577;SDS011;61668;45.388;11.784;2023-04-25T12:29:25;3.80;;;0.30;;
68577;SDS011;61668;45.388;11.784;2023-04-25T12:31:53;2.30;;;0.20;;
68577;SDS011;61668;45.388;11.784;2023-04-25T12:34:20;2.90;;;0.20;;
68577;SDS011;61668;45.388;11.784;2023-04-25T12:36:48;2.70;;;0.20;;
68577;SDS011;61668;45.388;11.784;2023-04-25T12:39:15;3.20;;;0.20;;
68577;SDS011;61668;45.388;11.784;2023-04-25T12:41:43;3.40;;;0.40;;
68577;SDS011;61668;45.388;11.784;2023-04-25T12:44:10;3.90;;;0.40;;
68577;SDS011;61668;45.388;11.784;2023-04-25T12:46:36;3.00;;;0.20;;
68577;SDS011;61668;45.388;11.784;2023-04-25T12:49:03;3.90;;;0.20;;
68577;SDS011;61668;45.388;11.784;2023-04-25T12:51:30;3.30;;;0.20;;
68577;SDS011;61668;45.388;11.784;2023-04-25T12:53:58;3.40;;;0.20;;
68577;SDS011;61668;45.388;11.784;2023-04-25T12:56:28;5.30;;;0.40;;
68577;SDS011;61668;45.388;11.784;2023-04-25T12:58:54;3.90;;;0.20;;
68577;SDS011;61668;45.388;11.784;2023-04-25T13:01:21;3.50;;;0.20;;
68577;SDS011;61668;45.388;11.784;2023-04-25T13:03:47;3.80;;;0.30;;
68577;SDS011;61668;45.388;11.784;2023-04-25T13:06:14;2.70;;;0.20;;
68577;SDS011;61668;45.388;11.784;2023-04-25T13:08:41;2.90;;;0.20;;
68577;SDS011;61668;45.388;11.784;2023-04-25T13:11:08;3.60;;;0.20;;
68577;SDS011;61668;45.388;11.784;2023-04-25T13:13:34;3.10;;;0.20;;
68577;SDS011;61668;45.388;11.784;2023-04-25T13:16:01;3.30;;;0.20;;
68577;SDS011;61668;45.388;11.784;2023-04-25T13:18:28;3.80;;;0.20;;
68577;SDS011;61668;45.388;11.784;2023-04-25T13:20:56;3.70;;;0.20;;
68577;SDS011;61668;45.388;11.784;2023-04-25T13:23:25;2.70;;;0.20;;
68577;SDS011;61668;45.388;11.784;2023-04-25T13:25:52;4.20;;;0.30;;
68577;SDS011;61668;45.388;11.784;2023-04-25T13:28:18;3.90;;;0.40;;
68577;SDS011;61668;45.388;11.784;2023-04-25T13:30:44;3.00;;;0.20;;
68577;SDS011;61668;45.388;11.784;2023-04-25T13:33:11;3.80;;;0.30;;
68577;SDS011;61668;45.388;11.784;2023-04-25T13:35:38;3.20;;;0.20;;
68577;SDS011;61668;45.388;11.784;2023-04-25T13:38:04;3.00;;;0.30;;
68577;SDS011;61668;45.388;11.784;2023-04-25T13:40:30;3.00;;;0.30;;
68577;SDS011;61668;45.388;11.784;2023-04-25T13:42:57;3.40;;;0.20;;
68577;SDS011;61668;45.388;11.784;2023-04-25T13:45:23;3.90;;;0.30;;
68577;SDS011;61668;45.388;11.784;2023-04-25T13:47:49;3.50;;;0.30;;
68577;SDS011;61668;45.388;11.784;2023-04-25T13:50:15;5.40;;;0.30;;
68577;SDS011;61668;45.388;11.784;2023-04-25T13:52:41;4.20;;;0.30;;
68577;SDS011;61668;45.388;11.784;2023-04-25T13:55:09;3.70;;;0.20;;
68577;SDS011;61668;45.388;11.784;2023-04-25T13:57:35;5.50;;;0.30;;
68577;SDS011;61668;45.388;11.784;2023-04-25T14:00:03;4.10;;;0.30;;
68577;SDS011;61668;45.388;11.784;2023-04-25T14:02:36;3.50;;;0.30;;
68577;SDS011;61668;45.388;11.784;2023-04-25T14:05:03;3.80;;;0.30;;
68577;SDS011;61668;45.388;11.784;2023-04-25T14:07:30;3.40;;;0.20;;
68577;SDS011;61668;45.388;11.784;2023-04-25T14:09:56;3.40;;;0.30;;
68577;SDS011;61668;45.388;11.784;2023-04-25T14:12:24;3.20;;;0.30;;
68577;SDS011;61668;45.388;11.784;2023-04-25T14:14:53;3.60;;;0.30;;
68577;SDS011;61668;45.388;11.784;2023-04-25T14:17:20;3.30;;;0.30;;
68577;SDS011;61668;45.388;11.784;2023-04-25T14:19:46;3.20;;;0.30;;
68577;SDS011;61668;45.388;11.784;2023-04-25T14:22:14;3.50;;;0.20;;
68577;SDS011;61668;45.388;11.784;2023-04-25T14:24:42;3.70;;;0.30;;
68577;SDS011;61668;45.388;11.784;2023-04-25T14:27:10;4.30;;;0.50;;
68577;SDS011;61668;45.388;11.784;2023-04-25T14:29:36;4.00;;;0.30;;
68577;SDS011;61668;45.388;11.784;2023-04-25T14:32:02;4.60;;;0.30;;
68577;SDS011;61668;45.388;11.784;2023-04-25T14:34:28;3.90;;;0.40;;
68577;SDS011;61668;45.388;11.784;2023-04-25T14:36:53;3.70;;;0.70;;
68577;SDS011;61668;45.388;11.784;2023-04-25T14:39:19;5.10;;;0.60;;
68577;SDS011;61668;45.388;11.784;2023-04-25T14:41:45;4.00;;;0.30;;
68577;SDS011;61668;45.388;11.784;2023-04-25T14:44:11;4.70;;;0.20;;
68577;SDS011;61668;45.388;11.784;2023-04-25T14:46:37;5.50;;;0.30;;
68577;SDS011;61668;45.388;11.784;2023-04-25T14:49:03;5.70;;;0.30;;